createdAt,value
2023-12-24T00:00:07.015Z,8.42
2023-12-24T00:02:11.697Z,8.44
2023-12-24T00:04:18.413Z,8.42
2023-12-24T00:06:23.245Z,8.41
2023-12-24T00:08:30.117Z,8.42
2023-12-24T00:10:34.872Z,8.39
2023-12-24T00:12:40.438Z,8.37
2023-12-24T00:14:45.107Z,8.28
2023-12-24T00:16:49.892Z,8.25
2023-12-24T00:18:54.594Z,8.21
2023-12-24T00:21:00.282Z,8.23
2023-12-24T00:23:15.147Z,8.26
2023-12-24T00:25:19.965Z,8.29
2023-12-24T00:27:22.047Z,8.35
2023-12-24T00:29:28.041Z,8.36
2023-12-24T00:31:35.473Z,8.38
2023-12-24T00:33:40.231Z,8.41
2023-12-24T00:35:42.776Z,8.39
2023-12-24T00:37:47.473Z,8.37
2023-12-24T00:39:54.754Z,8.38
2023-12-24T00:41:59.624Z,8.38
2023-12-24T00:44:04.308Z,8.39
2023-12-24T00:46:06.625Z,8.38
2023-12-24T00:48:12.047Z,8.38
2023-12-24T00:50:17.084Z,8.42
2023-12-24T00:52:22.799Z,8.43
2023-12-24T00:54:28.602Z,8.48
2023-12-24T00:56:36.256Z,8.47
2023-12-24T00:58:38.389Z,8.45
2023-12-24T01:00:43.538Z,8.45
2023-12-24T01:02:48.227Z,8.47
2023-12-24T01:04:52.961Z,8.44
2023-12-24T01:06:59.538Z,8.45
2023-12-24T01:09:04.844Z,8.45
2023-12-24T01:11:07.584Z,8.47
2023-12-24T01:13:20.142Z,8.49
2023-12-24T01:15:24.859Z,8.46
2023-12-24T01:17:29.747Z,8.54
2023-12-24T01:19:35.212Z,8.57
2023-12-24T01:21:40.007Z,8.53
2023-12-24T01:23:44.717Z,8.56
2023-12-24T01:25:50.380Z,8.54
2023-12-24T01:27:54.195Z,8.56
2023-12-24T01:30:01.638Z,8.55
2023-12-24T01:32:06.405Z,8.57
2023-12-24T01:34:11.217Z,8.57
2023-12-24T01:36:19.057Z,8.57
2023-12-24T01:38:24.501Z,8.55
2023-12-24T01:40:29.643Z,8.55
2023-12-24T01:42:34.483Z,8.59
2023-12-24T01:44:41.490Z,8.58
2023-12-24T01:46:51.976Z,8.64
2023-12-24T01:49:00.404Z,8.65
2023-12-24T01:51:10.333Z,8.65
2023-12-24T01:53:15.573Z,8.64
2023-12-24T01:55:20.359Z,8.69
2023-12-24T01:57:25.383Z,8.58
2023-12-24T01:59:30.392Z,8.57
2023-12-24T02:01:35.365Z,8.59
2023-12-24T02:03:41.342Z,8.51
2023-12-24T02:05:48.704Z,8.47
2023-12-24T02:07:55.633Z,8.41
2023-12-24T02:10:01.377Z,8.45
2023-12-24T02:12:06.600Z,8.44
2023-12-24T02:14:11.826Z,8.44
2023-12-24T02:16:19.219Z,8.43
2023-12-24T02:18:24.650Z,8.46
2023-12-24T02:20:32.588Z,8.51
2023-12-24T02:22:40.603Z,8.51
2023-12-24T02:24:42.901Z,8.48
2023-12-24T02:26:55.002Z,8.52
2023-12-24T02:29:03.493Z,8.54
2023-12-24T02:31:10.684Z,8.55
2023-12-24T02:33:16.012Z,8.58
2023-12-24T02:35:21.977Z,8.56
2023-12-24T02:37:27.084Z,8.62
2023-12-24T02:39:35.369Z,8.59
2023-12-24T02:41:41.523Z,8.61
2023-12-24T02:43:46.361Z,8.65
2023-12-24T02:45:51.778Z,8.63
2023-12-24T02:47:57.734Z,8.67
2023-12-24T02:50:04.573Z,8.61
2023-12-24T02:52:07.103Z,8.55
2023-12-24T02:54:14.384Z,8.53
2023-12-24T02:56:22.957Z,8.59
2023-12-24T02:58:27.663Z,8.59
2023-12-24T03:00:33.400Z,8.57
2023-12-24T03:02:38.346Z,8.60
2023-12-24T03:04:43.613Z,8.60
2023-12-24T03:06:50.494Z,8.54
2023-12-24T03:08:55.552Z,8.56
2023-12-24T03:11:00.492Z,8.58
2023-12-24T03:13:08.145Z,8.57
2023-12-24T03:15:13.383Z,8.56
2023-12-24T03:17:15.574Z,8.49
2023-12-24T03:19:20.688Z,8.45
2023-12-24T03:21:25.423Z,8.44
2023-12-24T03:23:30.212Z,8.48
2023-12-24T03:25:35.102Z,8.47
2023-12-24T03:27:39.989Z,8.48
2023-12-24T03:29:48.185Z,8.42
2023-12-24T03:31:52.925Z,8.43
2023-12-24T03:33:58.243Z,8.49
2023-12-24T03:36:00.477Z,8.47
2023-12-24T03:38:05.801Z,8.46
2023-12-24T03:40:11.390Z,8.44
2023-12-24T03:42:13.840Z,8.43
2023-12-24T03:44:18.689Z,8.42
2023-12-24T03:46:26.334Z,8.45
2023-12-24T03:48:31.496Z,8.50
2023-12-24T03:50:34.203Z,8.49
2023-12-24T03:52:39.158Z,8.47
2023-12-24T03:54:41.224Z,8.47
2023-12-24T03:56:46.033Z,8.48
2023-12-24T03:58:48.191Z,8.52
2023-12-24T04:00:53.681Z,8.52
2023-12-24T04:03:00.619Z,8.52
2023-12-24T04:05:05.396Z,8.51
2023-12-24T04:07:10.204Z,8.56
2023-12-24T04:09:15.478Z,8.53
2023-12-24T04:11:21.251Z,8.53
2023-12-24T04:13:27.704Z,8.55
2023-12-24T04:15:32.929Z,8.56
2023-12-24T04:17:35.834Z,8.61
2023-12-24T04:19:43.410Z,8.65
2023-12-24T04:21:48.381Z,8.58
2023-12-24T04:23:50.849Z,8.65
2023-12-24T04:25:55.755Z,8.63
2023-12-24T04:28:02.677Z,8.66
2023-12-24T04:30:08.830Z,8.69
2023-12-24T04:32:17.177Z,8.65
2023-12-24T04:34:19.759Z,8.63
2023-12-24T04:36:27.423Z,8.66
2023-12-24T04:38:32.143Z,8.65
2023-12-24T04:40:35.490Z,8.62
2023-12-24T04:42:41.000Z,8.63
2023-12-24T04:44:43.442Z,8.65
2023-12-24T04:46:50.743Z,8.63
2023-12-24T04:48:56.034Z,8.66
2023-12-24T04:51:01.051Z,8.63
2023-12-24T04:53:08.788Z,8.63
2023-12-24T04:55:13.685Z,8.65
2023-12-24T04:57:18.503Z,8.62
2023-12-24T04:59:20.677Z,8.62
2023-12-24T05:01:25.647Z,8.57
2023-12-24T05:03:30.586Z,8.61
2023-12-24T05:05:35.541Z,8.59
2023-12-24T05:07:40.519Z,8.61
2023-12-24T05:09:48.272Z,8.58
2023-12-24T05:11:53.337Z,8.58
2023-12-24T05:13:58.250Z,8.61
2023-12-24T05:16:03.705Z,8.65
2023-12-24T05:18:08.981Z,8.63
2023-12-24T05:20:14.424Z,8.63
2023-12-24T05:22:16.839Z,8.67
2023-12-24T05:24:21.919Z,8.68
2023-12-24T05:26:29.855Z,8.69
2023-12-24T05:28:34.833Z,8.63
2023-12-24T05:30:39.696Z,8.61
2023-12-24T05:32:44.967Z,8.63
2023-12-24T05:34:49.769Z,8.63
2023-12-24T05:36:57.754Z,8.62
2023-12-24T05:38:59.851Z,8.63
2023-12-24T05:41:04.609Z,8.60
2023-12-24T05:43:11.899Z,8.63
2023-12-24T05:45:16.597Z,8.60
2023-12-24T05:47:22.277Z,8.65
2023-12-24T05:49:29.246Z,8.63
2023-12-24T05:51:34.056Z,8.61
2023-12-24T05:53:38.966Z,8.61
2023-12-24T05:55:45.888Z,8.61
2023-12-24T05:57:50.755Z,8.64
2023-12-24T05:59:58.307Z,8.61
2023-12-24T06:02:03.660Z,8.56
2023-12-24T06:04:06.031Z,8.57
2023-12-24T06:06:11.160Z,8.63
2023-12-24T06:08:17.893Z,8.59
2023-12-24T06:10:22.808Z,8.58
2023-12-24T06:12:27.987Z,8.63
2023-12-24T06:14:33.145Z,8.59
2023-12-24T06:16:40.569Z,8.63
2023-12-24T06:18:46.299Z,8.59
2023-12-24T06:20:51.729Z,8.61
2023-12-24T06:22:54.107Z,8.64
2023-12-24T06:25:00.712Z,8.64
2023-12-24T06:27:03.883Z,8.55
2023-12-24T06:29:09.842Z,8.53
2023-12-24T06:31:15.936Z,8.54
2023-12-24T06:33:23.615Z,8.53
2023-12-24T06:35:30.736Z,8.55
2023-12-24T06:37:35.565Z,8.57
2023-12-24T06:39:40.570Z,8.57
2023-12-24T06:41:47.160Z,8.47
2023-12-24T06:43:52.040Z,8.42
2023-12-24T06:45:56.923Z,8.41
2023-12-24T06:48:01.825Z,8.32
2023-12-24T06:50:10.615Z,8.25
2023-12-24T06:52:17.421Z,8.24
2023-12-24T06:54:23.015Z,8.17
2023-12-24T06:56:27.719Z,8.10
2023-12-24T06:58:29.818Z,8.08
2023-12-24T07:00:35.007Z,8.09
2023-12-24T07:02:39.706Z,8.08
2023-12-24T07:04:42.281Z,8.05
2023-12-24T07:06:49.644Z,8.03
2023-12-24T07:08:54.467Z,8.09
2023-12-24T07:10:59.272Z,8.06
2023-12-24T07:13:04.278Z,8.04
2023-12-24T07:15:10.013Z,7.99
2023-12-24T07:17:14.844Z,7.98
2023-12-24T07:19:20.822Z,8.02
2023-12-24T07:21:25.645Z,8.00
2023-12-24T07:23:33.562Z,8.01
2023-12-24T07:25:38.525Z,8.00
2023-12-24T07:27:43.428Z,7.97
2023-12-24T07:29:48.322Z,7.87
2023-12-24T07:31:53.041Z,7.92
2023-12-24T07:33:58.690Z,7.89
2023-12-24T07:36:03.421Z,7.91
2023-12-24T07:38:08.769Z,7.98
2023-12-24T07:40:16.329Z,7.99
2023-12-24T07:42:21.201Z,8.01
2023-12-24T07:44:27.241Z,8.02
2023-12-24T07:46:33.922Z,8.06
2023-12-24T07:48:39.950Z,8.02
2023-12-24T07:50:43.507Z,8.10
2023-12-24T07:52:48.235Z,8.09
2023-12-24T07:54:53.146Z,8.13
2023-12-24T07:57:01.064Z,8.11
2023-12-24T07:59:07.384Z,8.12
2023-12-24T08:01:11.300Z,8.10
2023-12-24T08:03:16.153Z,8.21
2023-12-24T08:05:23.090Z,8.22
2023-12-24T08:07:28.264Z,8.21
2023-12-24T08:09:33.664Z,8.27
2023-12-24T08:11:38.403Z,8.35
2023-12-24T08:13:51.695Z,8.31
2023-12-24T08:15:57.033Z,8.38
2023-12-24T08:18:03.403Z,8.41
2023-12-24T08:20:09.509Z,8.38
2023-12-24T08:22:14.873Z,8.48
2023-12-24T08:24:20.005Z,8.52
2023-12-24T08:26:24.859Z,8.59
2023-12-24T08:28:31.948Z,8.71
2023-12-24T08:30:39.381Z,8.70
2023-12-24T08:32:44.372Z,8.81
2023-12-24T08:34:49.214Z,8.88
2023-12-24T08:36:51.871Z,8.93
2023-12-24T08:38:56.740Z,8.99
2023-12-24T08:41:01.776Z,9.04
2023-12-24T08:43:06.702Z,9.11
2023-12-24T08:45:14.334Z,9.20
2023-12-24T08:47:38.292Z,9.20
2023-12-24T08:49:45.765Z,9.17
2023-12-24T08:51:50.611Z,9.16
2023-12-24T08:53:55.282Z,9.09
2023-12-24T08:55:59.241Z,9.10
2023-12-24T08:58:04.627Z,9.02
2023-12-24T09:00:12.652Z,9.09
2023-12-24T09:02:15.273Z,9.01
2023-12-24T09:04:20.349Z,9.01
2023-12-24T09:06:28.294Z,9.02
2023-12-24T09:08:34.032Z,8.98
2023-12-24T09:10:36.323Z,9.01
2023-12-24T09:12:41.717Z,8.86
2023-12-24T09:14:46.735Z,8.84
2023-12-24T09:16:51.633Z,8.83
2023-12-24T09:18:54.158Z,8.80
2023-12-24T09:20:59.041Z,8.67
2023-12-24T09:23:06.705Z,8.65
2023-12-24T09:25:12.081Z,8.52
2023-12-24T09:27:14.491Z,8.55
2023-12-24T09:29:23.537Z,8.67
2023-12-24T09:31:28.414Z,8.75
2023-12-24T09:33:30.780Z,8.80
2023-12-24T09:35:36.947Z,8.89
2023-12-24T09:37:41.833Z,8.83
2023-12-24T09:39:49.252Z,8.79
2023-12-24T09:41:54.133Z,8.89
2023-12-24T09:44:02.460Z,8.82
2023-12-24T09:46:05.188Z,8.71
2023-12-24T09:48:10.540Z,8.75
2023-12-24T09:50:17.440Z,8.77
2023-12-24T09:52:22.541Z,8.79
2023-12-24T09:54:28.153Z,8.81
2023-12-24T09:56:36.040Z,8.70
2023-12-24T09:58:41.457Z,8.62
2023-12-24T10:00:46.526Z,8.73
2023-12-24T10:02:51.671Z,8.65
2023-12-24T10:04:54.331Z,8.59
2023-12-24T10:07:02.446Z,8.68
2023-12-24T10:09:07.613Z,8.67
2023-12-24T10:11:17.115Z,8.70
2023-12-24T10:13:26.159Z,8.66
2023-12-24T10:15:28.337Z,8.68
2023-12-24T10:17:33.783Z,8.67
2023-12-24T10:19:38.990Z,8.69
2023-12-24T10:21:41.954Z,8.55
2023-12-24T10:23:47.222Z,8.63
2023-12-24T10:26:04.430Z,8.74
2023-12-24T10:28:09.883Z,8.73
2023-12-24T10:30:18.556Z,8.81
2023-12-24T10:32:26.971Z,8.79
2023-12-24T10:34:34.334Z,8.69
2023-12-24T10:36:39.651Z,8.87
2023-12-24T10:38:46.053Z,8.75
2023-12-24T10:40:51.407Z,8.74
2023-12-24T10:42:56.407Z,8.70
2023-12-24T10:45:01.712Z,8.79
2023-12-24T10:47:09.759Z,8.82
2023-12-24T10:49:14.582Z,8.77
2023-12-24T10:51:19.355Z,8.78
2023-12-24T10:53:24.568Z,8.83
2023-12-24T10:55:30.464Z,8.83
2023-12-24T10:57:37.800Z,8.89
2023-12-24T11:00:00.580Z,8.79
2023-12-24T11:02:05.568Z,8.88
2023-12-24T11:04:13.439Z,8.90
2023-12-24T11:06:30.561Z,8.86
2023-12-24T11:08:35.570Z,8.93
2023-12-24T11:10:38.918Z,8.94
2023-12-24T11:12:46.326Z,8.91
2023-12-24T11:14:54.580Z,9.03
2023-12-24T11:16:59.539Z,9.05
2023-12-24T11:19:04.822Z,9.04
2023-12-24T11:21:13.599Z,9.05
2023-12-24T11:23:16.498Z,9.05
2023-12-24T11:25:22.080Z,8.99
2023-12-24T11:27:52.147Z,8.95
2023-12-24T11:30:05.772Z,9.03
2023-12-24T11:32:22.811Z,9.00
2023-12-24T11:34:36.573Z,9.03
2023-12-24T11:37:01.587Z,9.08
2023-12-24T11:39:08.736Z,9.16
2023-12-24T11:41:11.931Z,9.12
2023-12-24T11:43:18.596Z,9.15
2023-12-24T11:45:27.507Z,9.10
2023-12-24T11:47:32.660Z,9.19
2023-12-24T11:49:34.983Z,9.28
2023-12-24T11:51:40.239Z,9.16
2023-12-24T11:53:43.247Z,9.11
2023-12-24T11:55:48.548Z,9.21
2023-12-24T11:57:54.475Z,9.27
2023-12-24T11:59:56.997Z,9.35
2023-12-24T12:02:09.395Z,9.32
2023-12-24T12:04:19.856Z,9.31
2023-12-24T12:06:22.186Z,9.39
2023-12-24T12:08:28.191Z,9.47
2023-12-24T12:10:33.223Z,9.37
2023-12-24T12:12:38.008Z,9.44
2023-12-24T12:14:43.789Z,9.40
2023-12-24T12:16:48.545Z,9.46
2023-12-24T12:18:56.321Z,9.51
2023-12-24T12:21:01.232Z,9.49
2023-12-24T12:23:06.501Z,9.51
2023-12-24T12:25:14.886Z,9.56
2023-12-24T12:27:22.135Z,9.53
2023-12-24T12:29:28.477Z,9.53
2023-12-24T12:31:36.336Z,9.48
2023-12-24T12:33:41.626Z,9.52
2023-12-24T12:35:49.507Z,9.60
2023-12-24T12:37:54.304Z,9.57
2023-12-24T12:39:59.368Z,9.59
2023-12-24T12:42:06.138Z,9.61
2023-12-24T12:44:11.039Z,9.58
2023-12-24T12:46:15.983Z,9.68
2023-12-24T12:48:20.911Z,9.62
2023-12-24T12:50:26.102Z,9.66
2023-12-24T12:52:31.202Z,9.72
2023-12-24T12:54:36.300Z,9.77
2023-12-24T12:56:50.273Z,9.69
2023-12-24T12:58:55.280Z,9.70
2023-12-24T13:01:03.457Z,9.77
2023-12-24T13:03:09.795Z,9.64
2023-12-24T13:05:29.776Z,9.72
2023-12-24T13:07:37.680Z,9.71
2023-12-24T13:09:45.350Z,9.74
2023-12-24T13:11:50.247Z,9.74
2023-12-24T13:14:07.900Z,9.77
2023-12-24T13:16:13.357Z,9.76
2023-12-24T13:18:16.408Z,9.80
2023-12-24T13:20:21.382Z,9.79
2023-12-24T13:22:24.522Z,9.74
2023-12-24T13:24:32.636Z,9.78
2023-12-24T13:26:40.477Z,9.79
2023-12-24T13:28:46.446Z,9.79
2023-12-24T13:30:49.287Z,9.80
2023-12-24T13:32:55.159Z,9.81
2023-12-24T13:35:00.575Z,9.76
2023-12-24T13:37:06.834Z,9.81
2023-12-24T13:39:11.842Z,9.78
2023-12-24T13:41:19.759Z,9.83
2023-12-24T13:43:26.065Z,9.93
2023-12-24T13:45:32.034Z,9.93
2023-12-24T13:47:37.952Z,9.94
2023-12-24T13:49:44.817Z,9.89
2023-12-24T13:51:55.231Z,9.98
2023-12-24T13:54:00.644Z,9.97
2023-12-24T13:56:05.838Z,9.96
2023-12-24T13:58:11.788Z,9.95
2023-12-24T14:00:17.846Z,10.00
2023-12-24T14:02:24.069Z,9.94
2023-12-24T14:04:28.903Z,9.96
2023-12-24T14:06:33.850Z,9.95
2023-12-24T14:08:39.681Z,9.89
2023-12-24T14:10:44.913Z,9.93
2023-12-24T14:12:50.883Z,9.96
2023-12-24T14:15:00.592Z,10.02
2023-12-24T14:17:05.677Z,10.03
2023-12-24T14:19:10.865Z,10.01
2023-12-24T14:21:13.068Z,9.99
2023-12-24T14:23:18.349Z,10.03
2023-12-24T14:25:23.258Z,9.98
2023-12-24T14:27:28.510Z,10.00
2023-12-24T14:29:33.818Z,10.04
2023-12-24T14:31:41.312Z,10.05
2023-12-24T14:33:46.209Z,9.99
2023-12-24T14:35:51.460Z,9.99
2023-12-24T14:37:53.648Z,10.02
2023-12-24T14:39:59.747Z,9.96
2023-12-24T14:42:04.517Z,10.00
2023-12-24T14:44:10.635Z,9.92
2023-12-24T14:46:15.491Z,9.92
2023-12-24T14:48:23.137Z,9.92
2023-12-24T14:50:30.408Z,9.95
2023-12-24T14:52:34.254Z,9.95
2023-12-24T14:54:39.151Z,9.99
2023-12-24T14:56:44.364Z,9.99
2023-12-24T14:58:49.157Z,10.01
2023-12-24T15:00:53.894Z,10.01
2023-12-24T15:02:59.009Z,9.95
2023-12-24T15:05:04.554Z,10.00
2023-12-24T15:07:09.240Z,10.01
2023-12-24T15:09:15.089Z,9.96
2023-12-24T15:11:21.070Z,10.04
2023-12-24T15:13:25.885Z,9.99
2023-12-24T15:15:31.389Z,10.06
2023-12-24T15:17:37.571Z,10.05
2023-12-24T15:19:42.980Z,10.05
2023-12-24T15:21:51.176Z,9.97
2023-12-24T15:23:57.820Z,9.92
2023-12-24T15:26:02.701Z,9.86
2023-12-24T15:28:07.880Z,9.88
2023-12-24T15:30:12.882Z,9.94
2023-12-24T15:32:15.028Z,9.91
2023-12-24T15:34:20.151Z,9.99
2023-12-24T15:36:25.009Z,9.92
2023-12-24T15:38:29.870Z,9.89
2023-12-24T15:40:35.293Z,9.95
2023-12-24T15:42:40.060Z,9.94
2023-12-24T15:44:45.073Z,9.93
2023-12-24T15:46:51.034Z,9.95
2023-12-24T15:48:56.538Z,9.91
2023-12-24T15:51:01.636Z,9.85
2023-12-24T15:53:03.967Z,9.75
2023-12-24T15:55:11.755Z,9.80
2023-12-24T15:57:13.865Z,9.74
2023-12-24T15:59:18.785Z,9.76
2023-12-24T16:01:23.786Z,9.69
2023-12-24T16:03:28.634Z,9.67
2023-12-24T16:05:34.111Z,9.60
2023-12-24T16:07:39.065Z,9.58
2023-12-24T16:09:43.925Z,9.59
2023-12-24T16:11:51.550Z,9.56
2023-12-24T16:13:56.629Z,9.56
2023-12-24T16:16:02.083Z,9.47
2023-12-24T16:18:09.475Z,9.44
2023-12-24T16:20:12.666Z,9.44
2023-12-24T16:22:17.488Z,9.45
2023-12-24T16:24:22.242Z,9.41
2023-12-24T16:26:27.102Z,9.46
2023-12-24T16:28:34.713Z,9.55
2023-12-24T16:30:39.591Z,9.51
2023-12-24T16:32:44.486Z,9.55
2023-12-24T16:34:49.297Z,9.60
2023-12-24T16:36:54.161Z,9.62
2023-12-24T16:39:00.588Z,9.67
2023-12-24T16:41:02.910Z,9.68
2023-12-24T16:43:07.719Z,9.74
2023-12-24T16:45:12.567Z,9.74
2023-12-24T16:47:17.398Z,9.74
2023-12-24T16:49:22.358Z,9.76
2023-12-24T16:51:27.964Z,9.72
2023-12-24T16:53:32.994Z,9.71
2023-12-24T16:55:35.085Z,9.71
2023-12-24T16:57:39.878Z,9.67
2023-12-24T16:59:44.728Z,9.69
2023-12-24T17:01:57.156Z,9.62
2023-12-24T17:03:59.850Z,9.58
2023-12-24T17:06:04.979Z,9.59
2023-12-24T17:08:09.961Z,9.59
2023-12-24T17:10:15.529Z,9.60
2023-12-24T17:12:19.889Z,9.63
2023-12-24T17:14:25.974Z,9.66
2023-12-24T17:16:30.834Z,9.66
2023-12-24T17:18:38.686Z,9.66
2023-12-24T17:20:42.550Z,9.71
2023-12-24T17:22:47.470Z,9.67
2023-12-24T17:24:52.653Z,9.59
2023-12-24T17:26:58.515Z,9.61
2023-12-24T17:29:03.914Z,9.60
2023-12-24T17:31:10.391Z,9.60
2023-12-24T17:33:15.232Z,9.60
2023-12-24T17:35:22.766Z,9.63
2023-12-24T17:37:27.620Z,9.62
2023-12-24T17:39:32.516Z,9.67
2023-12-24T17:41:37.272Z,9.63
2023-12-24T17:43:39.376Z,9.64
2023-12-24T17:45:44.070Z,9.61
2023-12-24T17:47:49.240Z,9.67
2023-12-24T17:49:54.281Z,9.69
2023-12-24T17:52:02.467Z,9.68
2023-12-24T17:54:07.585Z,9.67
2023-12-24T17:56:09.695Z,9.71
2023-12-24T17:58:15.297Z,9.81
2023-12-24T18:00:21.026Z,9.79
2023-12-24T18:02:25.781Z,9.83
2023-12-24T18:04:30.804Z,9.82
2023-12-24T18:06:35.802Z,9.77
2023-12-24T18:08:44.320Z,9.77
2023-12-24T18:10:50.427Z,9.83
2023-12-24T18:12:55.386Z,9.82
2023-12-24T18:15:02.526Z,9.81
2023-12-24T18:17:08.188Z,9.76
2023-12-24T18:19:14.806Z,9.78
2023-12-24T18:21:21.998Z,9.87
2023-12-24T18:23:25.722Z,9.83
2023-12-24T18:25:33.362Z,9.92
2023-12-24T18:27:38.563Z,9.92
2023-12-24T18:29:43.654Z,9.89
2023-12-24T18:31:48.448Z,9.99
2023-12-24T18:33:54.086Z,9.93
2023-12-24T18:35:56.530Z,9.96
2023-12-24T18:38:06.658Z,10.00
2023-12-24T18:40:12.122Z,10.05
2023-12-24T18:42:19.423Z,10.06
2023-12-24T18:44:26.037Z,9.98
2023-12-24T18:46:31.211Z,9.97
2023-12-24T18:48:39.437Z,9.98
2023-12-24T18:50:44.515Z,9.98
2023-12-24T18:52:49.474Z,10.02
2023-12-24T18:54:58.938Z,10.04
2023-12-24T18:57:05.419Z,10.08
2023-12-24T18:59:12.941Z,10.12
2023-12-24T19:01:17.768Z,10.11
2023-12-24T19:03:22.681Z,10.13
2023-12-24T19:05:28.976Z,10.14
2023-12-24T19:07:34.313Z,10.12
2023-12-24T19:09:39.114Z,10.12
2023-12-24T19:11:45.698Z,10.19
2023-12-24T19:13:51.918Z,10.15
2023-12-24T19:16:02.580Z,10.12
2023-12-24T19:18:08.667Z,10.08
2023-12-24T19:20:14.336Z,10.04
2023-12-24T19:22:19.747Z,10.05
2023-12-24T19:24:26.469Z,10.14
2023-12-24T19:26:31.999Z,10.08
2023-12-24T19:28:36.958Z,10.07
2023-12-24T19:30:41.822Z,10.07
2023-12-24T19:32:49.989Z,10.05
2023-12-24T19:34:52.359Z,10.06
2023-12-24T19:36:58.979Z,10.13
2023-12-24T19:39:03.787Z,10.13
2023-12-24T19:41:08.523Z,10.11
2023-12-24T19:43:13.215Z,10.14
2023-12-24T19:45:18.133Z,10.18
2023-12-24T19:47:23.386Z,10.18
2023-12-24T19:49:31.290Z,10.22
2023-12-24T19:51:36.094Z,10.21
2023-12-24T19:53:41.355Z,10.19
2023-12-24T19:55:47.851Z,10.21
2023-12-24T19:57:52.993Z,10.25
2023-12-24T19:59:57.865Z,10.35
2023-12-24T20:02:02.933Z,10.36
2023-12-24T20:04:12.031Z,10.33
2023-12-24T20:06:20.413Z,10.35
2023-12-24T20:08:26.397Z,10.42
2023-12-24T20:10:28.538Z,10.47
2023-12-24T20:12:33.581Z,10.46
2023-12-24T20:14:38.903Z,10.40
2023-12-24T20:16:43.701Z,10.50
2023-12-24T20:18:48.613Z,10.46
2023-12-24T20:20:53.556Z,10.49
2023-12-24T20:23:02.272Z,10.51
2023-12-24T20:25:07.729Z,10.46
2023-12-24T20:27:09.814Z,10.51
2023-12-24T20:29:15.269Z,10.52
2023-12-24T20:31:20.119Z,10.51
2023-12-24T20:33:25.216Z,10.43
2023-12-24T20:35:30.279Z,10.45
2023-12-24T20:37:35.147Z,10.49
2023-12-24T20:39:39.790Z,10.48
2023-12-24T20:41:46.548Z,10.52
2023-12-24T20:43:51.347Z,10.50
2023-12-24T20:45:56.396Z,10.54
2023-12-24T20:48:01.541Z,10.59
2023-12-24T20:50:06.624Z,10.57
2023-12-24T20:52:09.159Z,10.62
2023-12-24T20:54:14.065Z,10.64
2023-12-24T20:56:22.316Z,10.66
2023-12-24T20:58:27.385Z,10.71
2023-12-24T21:00:32.577Z,10.67
2023-12-24T21:02:40.104Z,10.75
2023-12-24T21:04:45.761Z,10.74
2023-12-24T21:06:51.834Z,10.72
2023-12-24T21:08:57.485Z,10.70
2023-12-24T21:11:02.329Z,10.65
2023-12-24T21:13:10.106Z,10.70
2023-12-24T21:15:13.267Z,10.71
2023-12-24T21:17:18.182Z,10.73
2023-12-24T21:19:24.538Z,10.70
2023-12-24T21:21:29.237Z,10.74
2023-12-24T21:23:34.052Z,10.73
2023-12-24T21:25:39.253Z,10.68
2023-12-24T21:27:43.988Z,10.68
2023-12-24T21:29:51.528Z,10.70
2023-12-24T21:31:56.336Z,10.73
2023-12-24T21:33:58.639Z,10.62
2023-12-24T21:36:04.445Z,10.58
2023-12-24T21:38:09.488Z,10.40
2023-12-24T21:40:14.706Z,10.13
2023-12-24T21:42:19.800Z,10.05
2023-12-24T21:44:25.008Z,10.01
2023-12-24T21:46:29.703Z,9.95
2023-12-24T21:48:34.766Z,9.91
2023-12-24T21:50:40.230Z,9.89
2023-12-24T21:52:45.286Z,9.89
2023-12-24T21:54:50.306Z,9.89
2023-12-24T21:56:52.489Z,9.93
2023-12-24T21:58:57.209Z,9.91
2023-12-24T22:01:02.859Z,9.93
2023-12-24T22:03:11.457Z,9.96
2023-12-24T22:05:17.599Z,9.99
2023-12-24T22:07:23.688Z,10.00
2023-12-24T22:09:30.721Z,10.05
2023-12-24T22:11:35.615Z,10.01
2023-12-24T22:13:41.665Z,10.04
2023-12-24T22:15:48.794Z,10.05
2023-12-24T22:17:53.974Z,10.08
2023-12-24T22:20:06.565Z,10.09
2023-12-24T22:22:11.457Z,10.12
2023-12-24T22:24:16.572Z,10.07
2023-12-24T22:26:22.555Z,10.06
2023-12-24T22:28:27.335Z,10.01
2023-12-24T22:30:34.571Z,10.03
2023-12-24T22:32:40.601Z,10.01
2023-12-24T22:34:47.659Z,10.05
2023-12-24T22:36:55.872Z,9.99
2023-12-24T22:39:01.584Z,10.00
2023-12-24T22:41:08.833Z,10.02
2023-12-24T22:43:13.609Z,9.97
2023-12-24T22:45:22.627Z,9.96
2023-12-24T22:47:27.410Z,9.89
2023-12-24T22:49:32.279Z,9.74
2023-12-24T22:51:36.974Z,9.77
2023-12-24T22:53:45.231Z,9.68
2023-12-24T22:55:51.270Z,9.61
2023-12-24T22:57:56.178Z,9.60
2023-12-24T22:59:58.393Z,9.47
2023-12-24T23:02:04.633Z,9.35
2023-12-24T23:04:11.726Z,9.32
2023-12-24T23:06:17.205Z,9.27
2023-12-24T23:08:22.294Z,9.25
2023-12-24T23:10:29.812Z,9.24
2023-12-24T23:12:34.515Z,9.22
2023-12-24T23:14:37.058Z,9.27
2023-12-24T23:16:41.912Z,9.23
2023-12-24T23:18:44.175Z,9.24
2023-12-24T23:20:49.581Z,9.22
2023-12-24T23:22:52.086Z,9.21
2023-12-24T23:24:58.933Z,9.26
2023-12-24T23:27:08.886Z,9.29
2023-12-24T23:29:13.750Z,9.29
2023-12-24T23:31:18.556Z,9.26
2023-12-24T23:33:23.387Z,9.27
2023-12-24T23:35:28.243Z,9.28
2023-12-24T23:37:33.124Z,9.28
2023-12-24T23:39:38.382Z,9.36
2023-12-24T23:41:45.204Z,9.35
2023-12-24T23:43:52.941Z,9.36
2023-12-24T23:45:56.876Z,9.32
2023-12-24T23:48:02.644Z,9.29
2023-12-24T23:50:07.996Z,9.19
2023-12-24T23:52:12.989Z,9.24
2023-12-24T23:54:18.071Z,9.25
2023-12-24T23:56:22.917Z,9.28
2023-12-24T23:58:25.314Z,9.23
